sensor_id;sensor_type;location;lat;lon;timestamp;P1;durP1;ratioP1;P2;durP2;ratioP2
7883;SDS011;3987;51.458;7.238;2022-12-18T00:07:18;5.40;;;4.97;;
7883;SDS011;3987;51.458;7.238;2022-12-18T00:22:19;5.30;;;5.00;;
7883;SDS011;3987;51.458;7.238;2022-12-18T00:37:19;5.03;;;4.83;;
7883;SDS011;3987;51.458;7.238;2022-12-18T00:52:20;4.27;;;3.97;;
7883;SDS011;3987;51.458;7.238;2022-12-18T01:07:20;4.33;;;4.23;;
7883;SDS011;3987;51.458;7.238;2022-12-18T01:22:20;4.67;;;4.27;;
7883;SDS011;3987;51.458;7.238;2022-12-18T01:37:21;5.60;;;3.70;;
7883;SDS011;3987;51.458;7.238;2022-12-18T01:52:23;4.53;;;4.33;;
7883;SDS011;3987;51.458;7.238;2022-12-18T02:22:42;4.57;;;4.37;;
7883;SDS011;3987;51.458;7.238;2022-12-18T02:37:50;4.67;;;4.47;;
7883;SDS011;3987;51.458;7.238;2022-12-18T03:08:11;5.37;;;5.17;;
7883;SDS011;3987;51.458;7.238;2022-12-18T03:23:16;4.27;;;3.97;;
7883;SDS011;3987;51.458;7.238;2022-12-18T03:38:21;5.47;;;5.27;;
7883;SDS011;3987;51.458;7.238;2022-12-18T04:08:45;5.07;;;4.67;;
7883;SDS011;3987;51.458;7.238;2022-12-18T04:23:51;4.13;;;3.93;;
7883;SDS011;3987;51.458;7.238;2022-12-18T04:38:54;4.27;;;4.07;;
7883;SDS011;3987;51.458;7.238;2022-12-18T04:53:55;3.30;;;3.20;;
7883;SDS011;3987;51.458;7.238;2022-12-18T05:08:56;2.97;;;2.73;;
7883;SDS011;3987;51.458;7.238;2022-12-18T05:23:56;4.47;;;4.27;;
7883;SDS011;3987;51.458;7.238;2022-12-18T05:38:57;18.07;;;14.07;;
7883;SDS011;3987;51.458;7.238;2022-12-18T05:53:57;25.70;;;16.83;;
7883;SDS011;3987;51.458;7.238;2022-12-18T06:08:57;29.30;;;17.37;;
7883;SDS011;3987;51.458;7.238;2022-12-18T06:23:58;26.87;;;16.03;;
7883;SDS011;3987;51.458;7.238;2022-12-18T06:38:59;19.60;;;14.83;;
7883;SDS011;3987;51.458;7.238;2022-12-18T06:54:01;22.27;;;16.07;;
7883;SDS011;3987;51.458;7.238;2022-12-18T07:09:01;21.87;;;14.63;;
7883;SDS011;3987;51.458;7.238;2022-12-18T07:24:02;31.37;;;15.60;;
7883;SDS011;3987;51.458;7.238;2022-12-18T07:39:02;28.17;;;17.67;;
7883;SDS011;3987;51.458;7.238;2022-12-18T07:54:03;30.73;;;18.67;;
7883;SDS011;3987;51.458;7.238;2022-12-18T08:09:04;30.17;;;18.20;;
7883;SDS011;3987;51.458;7.238;2022-12-18T08:24:05;28.30;;;17.87;;
7883;SDS011;3987;51.458;7.238;2022-12-18T08:39:08;13.80;;;10.63;;
7883;SDS011;3987;51.458;7.238;2022-12-18T08:54:10;10.57;;;9.57;;
7883;SDS011;3987;51.458;7.238;2022-12-18T09:09:23;4.03;;;3.90;;
7883;SDS011;3987;51.458;7.238;2022-12-18T09:24:23;2.63;;;2.43;;
7883;SDS011;3987;51.458;7.238;2022-12-18T09:39:24;3.03;;;2.83;;
7883;SDS011;3987;51.458;7.238;2022-12-18T09:54:26;3.47;;;3.37;;
7883;SDS011;3987;51.458;7.238;2022-12-18T10:09:40;1.97;;;1.97;;
7883;SDS011;3987;51.458;7.238;2022-12-18T10:24:50;2.40;;;2.37;;
7883;SDS011;3987;51.458;7.238;2022-12-18T10:55:15;2.97;;;2.87;;
7883;SDS011;3987;51.458;7.238;2022-12-18T11:10:17;2.60;;;2.50;;
7883;SDS011;3987;51.458;7.238;2022-12-18T11:25:18;3.30;;;3.00;;
7883;SDS011;3987;51.458;7.238;2022-12-18T11:40:20;3.83;;;2.60;;
7883;SDS011;3987;51.458;7.238;2022-12-18T11:55:29;3.13;;;3.03;;
7883;SDS011;3987;51.458;7.238;2022-12-18T12:10:45;3.20;;;3.10;;
7883;SDS011;3987;51.458;7.238;2022-12-18T12:26:07;3.50;;;3.30;;
7883;SDS011;3987;51.458;7.238;2022-12-18T12:41:12;3.80;;;3.70;;
7883;SDS011;3987;51.458;7.238;2022-12-18T12:56:48;3.83;;;3.73;;
7883;SDS011;3987;51.458;7.238;2022-12-18T13:12:01;4.00;;;3.80;;
7883;SDS011;3987;51.458;7.238;2022-12-18T13:42:44;6.30;;;6.00;;
7883;SDS011;3987;51.458;7.238;2022-12-18T13:58:04;6.40;;;5.80;;
7883;SDS011;3987;51.458;7.238;2022-12-18T14:13:05;7.27;;;6.77;;
7883;SDS011;3987;51.458;7.238;2022-12-18T14:43:10;8.60;;;7.77;;
7883;SDS011;3987;51.458;7.238;2022-12-18T14:58:11;7.80;;;7.17;;
7883;SDS011;3987;51.458;7.238;2022-12-18T15:13:21;7.93;;;7.40;;
7883;SDS011;3987;51.458;7.238;2022-12-18T15:28:23;10.23;;;9.17;;
7883;SDS011;3987;51.458;7.238;2022-12-18T15:43:27;10.13;;;9.23;;
7883;SDS011;3987;51.458;7.238;2022-12-18T15:58:34;13.60;;;10.20;;
7883;SDS011;3987;51.458;7.238;2022-12-18T16:13:34;13.50;;;9.97;;
7883;SDS011;3987;51.458;7.238;2022-12-18T16:28:35;11.67;;;10.07;;
7883;SDS011;3987;51.458;7.238;2022-12-18T16:43:35;17.80;;;13.00;;
7883;SDS011;3987;51.458;7.238;2022-12-18T16:58:36;15.20;;;12.13;;
7883;SDS011;3987;51.458;7.238;2022-12-18T17:13:36;19.43;;;12.90;;
7883;SDS011;3987;51.458;7.238;2022-12-18T17:28:37;21.57;;;13.60;;
7883;SDS011;3987;51.458;7.238;2022-12-18T17:43:38;18.90;;;13.80;;
7883;SDS011;3987;51.458;7.238;2022-12-18T17:58:44;21.70;;;13.13;;
7883;SDS011;3987;51.458;7.238;2022-12-18T18:13:45;18.83;;;13.07;;
7883;SDS011;3987;51.458;7.238;2022-12-18T18:29:01;22.27;;;14.73;;
7883;SDS011;3987;51.458;7.238;2022-12-18T18:44:02;20.47;;;12.60;;
7883;SDS011;3987;51.458;7.238;2022-12-18T18:59:03;25.30;;;15.77;;
7883;SDS011;3987;51.458;7.238;2022-12-18T19:14:05;26.03;;;15.57;;
7883;SDS011;3987;51.458;7.238;2022-12-18T19:29:07;30.60;;;16.97;;
7883;SDS011;3987;51.458;7.238;2022-12-18T19:44:09;27.87;;;15.80;;
7883;SDS011;3987;51.458;7.238;2022-12-18T19:59:10;30.23;;;15.93;;
7883;SDS011;3987;51.458;7.238;2022-12-18T20:14:12;25.77;;;15.63;;
7883;SDS011;3987;51.458;7.238;2022-12-18T20:29:13;28.97;;;15.43;;
7883;SDS011;3987;51.458;7.238;2022-12-18T20:44:14;26.57;;;13.63;;
7883;SDS011;3987;51.458;7.238;2022-12-18T20:59:16;29.80;;;15.37;;
7883;SDS011;3987;51.458;7.238;2022-12-18T21:14:18;28.50;;;16.75;;
7883;SDS011;3987;51.458;7.238;2022-12-18T21:29:23;31.07;;;14.50;;
7883;SDS011;3987;51.458;7.238;2022-12-18T21:44:24;32.23;;;16.60;;
7883;SDS011;3987;51.458;7.238;2022-12-18T21:59:26;22.87;;;15.27;;
7883;SDS011;3987;51.458;7.238;2022-12-18T22:14:45;30.03;;;16.10;;
7883;SDS011;3987;51.458;7.238;2022-12-18T22:29:45;21.47;;;14.23;;
7883;SDS011;3987;51.458;7.238;2022-12-18T22:45:04;28.53;;;16.83;;
7883;SDS011;3987;51.458;7.238;2022-12-18T23:00:05;22.77;;;14.80;;
7883;SDS011;3987;51.458;7.238;2022-12-18T23:15:08;27.90;;;16.53;;
7883;SDS011;3987;51.458;7.238;2022-12-18T23:30:09;31.37;;;16.83;;
7883;SDS011;3987;51.458;7.238;2022-12-18T23:45:10;33.37;;;16.77;;
